Time;durP1;ratioP1;P1;durP2;ratioP2;P2;SDS_P1;SDS_P2;PMS_P1;PMS_P2;Temp;Humidity;BMP_temperature;BMP_pressure;BME280_temperature;BME280_humidity;BME280_pressure;Samples;Min_cycle;Max_cycle;Signal;HPM_P1;HPM_P2
2023/03/23 00:01:54;;;;;;;4.13;2.50;;;;;;;12.54;48.54;96115.63;5015827;28;20496;-78
2023/03/23 00:04:22;;;;;;;3.22;2.03;;;;;;;12.46;48.86;96133.34;5015672;28;20084;-78
2023/03/23 00:06:49;;;;;;;2.47;1.70;;;;;;;12.44;49.54;96145.81;5014927;28;20057;-78
2023/03/23 00:09:17;;;;;;;3.03;2.15;;;;;;;12.47;49.11;96148.84;5014709;28;20048;-78
2023/03/23 00:11:44;;;;;;;4.50;1.95;;;;;;;12.47;48.80;96150.66;5015454;28;20049;-78
2023/03/23 00:14:12;;;;;;;4.60;1.65;;;;;;;12.49;50.26;96156.50;5015670;28;20522;-78
2023/03/23 00:16:40;;;;;;;3.22;2.35;;;;;;;12.55;49.39;96137.34;5015458;28;20054;-78
2023/03/23 00:19:09;;;;;;;2.53;1.75;;;;;;;12.58;49.11;96131.72;5014878;28;20500;-78
2023/03/23 00:21:38;;;;;;;4.35;2.00;;;;;;;12.57;48.78;96136.16;5015699;28;20092;-79
2023/03/23 00:24:08;;;;;;;2.90;2.00;;;;;;;12.56;48.76;96159.91;5015381;28;20145;-78
2023/03/23 00:26:35;;;;;;;1.52;1.40;;;;;;;12.59;49.92;96149.00;5015095;28;20053;-78
2023/03/23 00:29:03;;;;;;;3.70;1.70;;;;;;;12.64;48.90;96151.00;5015503;28;20345;-79
2023/03/23 00:31:32;;;;;;;2.78;1.95;;;;;;;12.68;48.52;96137.34;5018131;28;20292;-79
2023/03/23 00:34:00;;;;;;;2.55;1.98;;;;;;;12.72;48.32;96132.47;5017060;28;20491;-78
2023/03/23 00:36:28;;;;;;;4.00;1.90;;;;;;;12.73;48.47;96124.44;5015826;28;20060;-78
2023/03/23 00:38:57;;;;;;;2.80;1.73;;;;;;;12.76;48.76;96129.22;5014877;28;20460;-78
2023/03/23 00:41:26;;;;;;;3.00;1.73;;;;;;;12.82;48.62;96125.00;5024243;28;20136;-78
2023/03/23 00:43:53;;;;;;;3.63;2.17;;;;;;;12.90;49.33;96116.09;5015224;28;20081;-79
2023/03/23 00:46:20;;;;;;;4.90;2.90;;;;;;;12.93;49.44;96119.09;5015093;28;20503;-78
2023/03/23 00:48:47;;;;;;;3.28;2.22;;;;;;;12.96;50.85;96117.88;5014559;28;20051;-78
2023/03/23 00:51:14;;;;;;;7.75;2.95;;;;;;;13.02;51.04;96117.06;5014941;28;20045;-78
2023/03/23 00:53:41;;;;;;;5.07;3.10;;;;;;;13.05;50.50;96115.84;5015437;28;20117;-78
2023/03/23 00:56:09;;;;;;;4.88;2.35;;;;;;;13.06;50.43;96113.00;5014878;28;20045;-78
2023/03/23 00:58:36;;;;;;;2.67;1.70;;;;;;;13.06;49.92;96099.13;5014813;28;20573;-79
2023/03/23 01:01:03;;;;;;;3.58;1.77;;;;;;;13.05;50.05;96090.44;5015255;28;20053;-78
2023/03/23 01:03:30;;;;;;;2.88;1.48;;;;;;;13.05;49.37;96090.44;5015245;28;20164;-78
2023/03/23 01:05:57;;;;;;;5.80;2.25;;;;;;;13.06;49.42;96091.28;5014690;28;20053;-79
2023/03/23 01:08:24;;;;;;;1.75;1.55;;;;;;;13.03;49.63;96087.25;5014039;28;20061;-78
2023/03/23 01:10:53;;;;;;;3.60;2.30;;;;;;;13.02;49.41;96093.50;5014793;28;20084;-78
2023/03/23 01:13:22;;;;;;;2.53;2.05;;;;;;;12.99;50.68;96081.63;5022195;28;20113;-79
2023/03/23 01:15:49;;;;;;;4.03;2.33;;;;;;;12.99;50.36;96070.38;5027390;28;20396;-79
2023/03/23 01:18:15;;;;;;;6.22;3.13;;;;;;;12.98;50.63;96077.38;5015224;28;20111;-78
2023/03/23 01:20:42;;;;;;;3.10;2.38;;;;;;;13.00;51.98;96077.19;5015417;28;20100;-79
2023/03/23 01:23:08;;;;;;;4.00;2.30;;;;;;;13.03;51.71;96078.56;5014903;28;20057;-78
2023/03/23 01:25:37;;;;;;;4.90;2.63;;;;;;;13.02;52.53;96077.78;5014376;28;20053;-78
2023/03/23 01:28:03;;;;;;;4.55;2.60;;;;;;;13.02;52.15;96083.03;5014544;28;20057;-78
2023/03/23 01:30:31;;;;;;;7.70;2.65;;;;;;;13.06;53.31;96086.03;5014868;28;20084;-78
2023/03/23 01:32:58;;;;;;;4.43;2.35;;;;;;;13.13;52.06;96071.88;5014889;28;20061;-78
2023/03/23 01:35:24;;;;;;;8.63;3.42;;;;;;;13.13;51.11;96066.63;5014825;28;20562;-78
2023/03/23 01:37:51;;;;;;;2.95;2.22;;;;;;;13.09;50.89;96065.44;5013918;28;20054;-77
2023/03/23 01:40:17;;;;;;;4.85;2.15;;;;;;;13.06;50.71;96065.09;5014952;28;20087;-78
2023/03/23 01:42:44;;;;;;;4.35;1.90;;;;;;;12.99;50.42;96055.44;5014833;28;20128;-78
2023/03/23 01:45:30;;;;;;;2.03;1.48;;;;;;;12.96;50.77;96057.66;5014469;28;20064;-79
2023/03/23 01:48:04;;;;;;;4.22;1.80;;;;;;;12.91;50.83;96058.31;5013748;28;20140;-79
2023/03/23 01:50:37;;;;;;;5.32;2.03;;;;;;;12.87;50.96;96058.94;5014978;28;20049;-79
2023/03/23 01:53:08;;;;;;;4.05;2.00;;;;;;;12.87;51.28;96056.31;5014775;28;20054;-78
2023/03/23 01:55:38;;;;;;;4.30;1.88;;;;;;;12.85;51.25;96060.97;5014568;28;20076;-78
2023/03/23 01:58:07;;;;;;;1.92;1.35;;;;;;;12.85;51.64;96058.34;5013825;28;20470;-78
2023/03/23 02:00:34;;;;;;;7.05;2.20;;;;;;;12.88;51.46;96055.28;5014467;28;20045;-78
2023/03/23 02:03:02;;;;;;;6.32;1.40;;;;;;;12.87;51.52;96053.69;5014536;28;20089;-78
2023/03/23 02:05:31;;;;;;;5.85;2.20;;;;;;;12.87;51.36;96057.13;5014289;28;20500;-78
2023/03/23 02:08:02;;;;;;;6.45;1.48;;;;;;;12.87;51.03;96049.25;5013782;28;20526;-78
2023/03/23 02:10:30;;;;;;;5.60;1.50;;;;;;;12.86;51.10;96059.97;5013904;28;20041;-78
2023/03/23 02:12:57;;;;;;;7.38;2.13;;;;;;;12.82;51.08;96056.16;5014169;28;20051;-79
2023/03/23 02:15:27;;;;;;;5.25;1.65;;;;;;;12.78;51.08;96059.16;5014205;28;20095;-78
2023/03/23 02:18:00;;;;;;;3.58;1.35;;;;;;;12.78;50.98;96051.31;5013377;28;20057;-78
2023/03/23 02:20:56;;;;;;;6.20;1.42;;;;;;;12.78;50.90;96043.47;5014528;28;20084;-79
2023/03/23 02:23:47;;;;;;;1.92;1.50;;;;;;;12.75;50.79;96043.09;5014170;28;20096;-78
2023/03/23 02:26:29;;;;;;;5.28;1.60;;;;;;;12.76;50.60;96035.03;5014039;28;20085;-78
2023/03/23 02:29:17;;;;;;;5.20;1.55;;;;;;;12.81;50.25;96028.34;5016937;28;20079;-77
2023/03/23 02:32:11;;;;;;;2.88;1.30;;;;;;;12.85;50.09;96016.47;5036805;28;20049;-78
2023/03/23 02:34:42;;;;;;;3.35;1.40;;;;;;;12.89;49.96;96020.25;5037299;28;20049;-80
2023/03/23 02:37:13;;;;;;;2.72;1.40;;;;;;;12.92;49.81;96019.84;5037305;28;20068;-79
2023/03/23 02:39:46;;;;;;;4.72;1.42;;;;;;;12.95;49.65;96017.59;5028377;28;20503;-78
2023/03/23 02:42:17;;;;;;;7.03;1.60;;;;;;;12.96;49.62;96024.44;5017687;28;20117;-78
2023/03/23 02:44:46;;;;;;;8.63;1.52;;;;;;;12.96;49.63;96015.78;5018148;28;20049;-78
2023/03/23 02:47:17;;;;;;;7.38;1.48;;;;;;;12.93;49.64;96018.84;5017633;28;20141;-78
2023/03/23 02:49:47;;;;;;;3.28;1.20;;;;;;;12.90;49.74;96019.25;5016757;28;20450;-78
2023/03/23 02:52:19;;;;;;;3.22;1.50;;;;;;;12.84;50.17;96020.09;5017593;28;20149;-78
2023/03/23 02:54:47;;;;;;;5.73;1.60;;;;;;;12.81;50.25;96025.75;5017327;28;20507;-78
2023/03/23 02:57:14;;;;;;;2.03;1.48;;;;;;;12.78;50.19;96022.53;5017308;28;20240;-78
2023/03/23 02:59:41;;;;;;;4.20;1.52;;;;;;;12.80;50.33;96014.47;5016582;28;20077;-79
2023/03/23 03:02:12;;;;;;;4.30;1.38;;;;;;;12.82;50.78;96017.69;5017054;28;20543;-78
2023/03/23 03:04:41;;;;;;;7.05;1.95;;;;;;;12.84;50.83;96018.28;5016980;28;20388;-78
2023/03/23 03:07:31;;;;;;;9.10;1.85;;;;;;;12.86;50.85;96023.31;5017037;28;20144;-78
2023/03/23 03:10:02;;;;;;;3.10;1.25;;;;;;;12.86;50.77;96018.88;5015982;28;20049;-78
2023/03/23 03:12:37;;;;;;;6.38;1.80;;;;;;;12.86;51.04;96020.69;5015463;28;20614;-78
2023/03/23 03:15:14;;;;;;;5.28;1.63;;;;;;;12.84;51.21;96020.09;5016487;28;20080;-78
2023/03/23 03:17:46;;;;;;;7.95;1.73;;;;;;;12.77;51.36;96010.47;5016940;28;20085;-78
2023/03/23 03:20:14;;;;;;;4.93;1.30;;;;;;;12.71;51.49;96003.44;5015351;28;20412;-78
2023/03/23 03:22:44;;;;;;;5.60;1.45;;;;;;;12.67;51.83;95991.78;5016073;28;20334;-78
2023/03/23 03:25:13;;;;;;;4.63;1.55;;;;;;;12.68;51.61;95993.41;5015383;28;20061;-78
2023/03/23 03:27:41;;;;;;;5.32;1.85;;;;;;;12.70;51.47;95996.63;5015724;28;20053;-78
2023/03/23 03:30:12;;;;;;;3.15;1.50;;;;;;;12.69;51.84;95987.16;5015365;28;20510;-78
2023/03/23 03:32:43;;;;;;;5.90;1.70;;;;;;;12.65;51.60;95982.56;5015974;28;20045;-79
2023/03/23 03:35:10;;;;;;;5.15;1.70;;;;;;;12.59;51.87;95981.56;5016339;28;20503;-78
2023/03/23 03:37:39;;;;;;;7.00;1.10;;;;;;;12.60;51.71;95987.63;5016316;28;20053;-78
2023/03/23 03:40:12;;;;;;;7.55;1.90;;;;;;;12.61;51.67;95991.84;5015739;28;20491;-78
2023/03/23 03:42:40;;;;;;;2.33;1.35;;;;;;;12.62;51.31;95989.00;5016074;28;20096;-78
2023/03/23 03:45:08;;;;;;;5.03;1.33;;;;;;;12.63;51.40;95995.03;5015982;28;20487;-78
2023/03/23 03:47:35;;;;;;;6.82;1.42;;;;;;;12.63;51.23;95988.00;5016559;28;20049;-79
2023/03/23 03:50:02;;;;;;;3.83;1.30;;;;;;;12.65;51.29;95990.41;5015288;28;20213;-79
2023/03/23 03:52:28;;;;;;;5.00;1.23;;;;;;;12.70;51.21;95982.72;5015854;28;20132;-78
2023/03/23 03:54:55;;;;;;;3.75;1.27;;;;;;;12.76;51.08;95987.13;5020498;28;20042;-79
2023/03/23 03:57:24;;;;;;;3.65;1.40;;;;;;;12.81;50.80;95999.56;5028362;28;20064;-79
2023/03/23 03:59:51;;;;;;;2.97;1.15;;;;;;;12.84;50.85;95993.94;5020117;28;20091;-78
2023/03/23 04:02:19;;;;;;;4.13;1.58;;;;;;;12.85;50.73;95985.84;5016451;28;20057;-79
2023/03/23 04:04:47;;;;;;;8.60;1.63;;;;;;;12.86;50.55;95995.31;5015637;28;20054;-79
2023/03/23 04:07:16;;;;;;;3.63;1.33;;;;;;;12.85;50.06;95987.66;5015845;28;20057;-78
2023/03/23 04:09:42;;;;;;;4.15;1.60;;;;;;;12.82;50.54;95990.72;5014748;28;20462;-78
2023/03/23 04:12:09;;;;;;;3.90;1.58;;;;;;;12.77;50.69;95989.53;5015860;28;20049;-78
2023/03/23 04:14:37;;;;;;;2.92;1.52;;;;;;;12.75;50.44;95988.94;5015494;28;20562;-78
2023/03/23 04:17:03;;;;;;;6.10;1.50;;;;;;;12.74;50.46;96000.41;5015710;28;20077;-78
2023/03/23 04:19:32;;;;;;;3.88;1.80;;;;;;;12.73;50.32;95992.78;5014699;28;20080;-78
2023/03/23 04:21:59;;;;;;;4.28;1.45;;;;;;;12.72;50.23;95983.31;5015273;28;20419;-79
2023/03/23 04:24:28;;;;;;;2.55;1.48;;;;;;;12.73;50.28;95983.09;5015650;28;20085;-78
2023/03/23 04:26:55;;;;;;;5.00;1.52;;;;;;;12.75;50.05;95988.13;5015686;28;20052;-78
2023/03/23 04:29:21;;;;;;;7.28;1.50;;;;;;;12.77;50.02;95984.31;5014645;28;20419;-78
2023/03/23 04:31:50;;;;;;;1.88;1.20;;;;;;;12.78;49.85;95985.88;5015562;28;20488;-78
2023/03/23 04:34:17;;;;;;;3.28;1.10;;;;;;;12.82;49.87;95982.88;5015254;28;20068;-79
2023/03/23 04:36:44;;;;;;;4.10;1.35;;;;;;;12.84;49.71;95983.47;5015398;28;20119;-78
2023/03/23 04:39:10;;;;;;;2.42;1.10;;;;;;;12.86;49.61;95982.22;5014582;28;20107;-78
2023/03/23 04:41:38;;;;;;;3.67;1.45;;;;;;;12.89;49.58;95978.38;5014920;28;20061;-79
2023/03/23 04:44:05;;;;;;;4.32;1.63;;;;;;;12.92;49.48;95975.34;5015099;28;20096;-78
2023/03/23 04:46:31;;;;;;;4.00;1.27;;;;;;;12.97;49.24;95978.13;5014644;28;20518;-78
2023/03/23 04:49:00;;;;;;;1.35;1.15;;;;;;;13.00;49.19;95972.47;5014449;28;20088;-78
2023/03/23 04:51:27;;;;;;;5.82;1.45;;;;;;;13.05;49.26;95970.00;5014681;28;20091;-78
2023/03/23 04:53:53;;;;;;;3.15;1.30;;;;;;;13.08;48.95;95972.22;5014595;28;20081;-78
2023/03/23 04:56:20;;;;;;;2.38;1.70;;;;;;;13.12;49.00;95962.91;5015164;28;20111;-78
2023/03/23 04:58:47;;;;;;;1.30;1.05;;;;;;;13.16;49.05;95971.97;5014662;28;20049;-79
2023/03/23 05:01:14;;;;;;;5.53;1.35;;;;;;;13.20;49.09;95967.06;5015587;28;20084;-79
2023/03/23 05:03:41;;;;;;;2.70;1.20;;;;;;;13.24;49.03;95973.50;5015493;28;20085;-79
2023/03/23 05:06:09;;;;;;;1.70;1.10;;;;;;;13.29;49.11;95976.31;5016172;28;20053;-78
2023/03/23 05:08:38;;;;;;;2.67;1.05;;;;;;;13.36;48.55;95971.03;5014602;28;20136;-78
2023/03/23 05:11:06;;;;;;;1.33;1.05;;;;;;;13.41;48.57;95975.63;5014811;28;20052;-78
2023/03/23 05:13:33;;;;;;;2.65;0.98;;;;;;;13.45;47.97;95971.56;5014627;28;20049;-78
2023/03/23 05:16:04;;;;;;;2.83;0.70;;;;;;;13.51;47.66;95974.13;5014724;28;20100;-78
2023/03/23 05:18:31;;;;;;;3.13;1.10;;;;;;;13.56;47.78;95971.66;5014083;28;20089;-78
2023/03/23 05:21:00;;;;;;;0.90;0.90;;;;;;;13.61;47.52;95973.63;5015004;28;20405;-78
2023/03/23 05:23:30;;;;;;;1.40;1.00;;;;;;;13.67;47.49;95970.16;5014616;28;20132;-78
2023/03/23 05:36:37;;;;;;;1.80;1.08;;;;;;;13.89;47.09;95960.03;5900182;22;20276;-78
2023/03/23 05:39:05;;;;;;;1.13;0.90;;;;;;;13.94;46.92;95962.78;5033354;28;20091;-78
2023/03/23 05:41:31;;;;;;;2.45;1.00;;;;;;;13.97;46.88;95967.63;5033843;28;20049;-78
2023/03/23 05:43:58;;;;;;;1.35;1.10;;;;;;;14.00;46.93;95972.41;5034561;28;20080;-78
2023/03/23 05:46:24;;;;;;;1.60;1.40;;;;;;;14.02;46.81;95978.25;5030747;28;20080;-78
2023/03/23 05:48:51;;;;;;;6.55;1.20;;;;;;;14.05;46.88;95974.38;5013554;28;20136;-78
2023/03/23 05:51:18;;;;;;;3.33;1.30;;;;;;;14.09;47.18;95975.56;5013825;28;20046;-78
2023/03/23 05:53:45;;;;;;;2.22;1.10;;;;;;;14.12;47.12;95974.31;5014947;28;20061;-77
2023/03/23 05:56:14;;;;;;;1.17;0.90;;;;;;;14.16;46.85;95985.97;5014408;28;20049;-78
2023/03/23 05:58:40;;;;;;;1.75;1.48;;;;;;;14.17;46.89;95977.88;5013756;28;20061;-78
2023/03/23 06:01:07;;;;;;;1.45;1.05;;;;;;;14.21;47.04;95975.59;5013930;28;20045;-78
2023/03/23 06:03:35;;;;;;;1.05;0.98;;;;;;;14.23;46.97;95973.56;5014415;28;20486;-78
2023/03/23 06:06:02;;;;;;;3.60;1.23;;;;;;;14.25;46.64;95968.91;5017170;28;20056;-78
2023/03/23 06:08:28;;;;;;;4.55;1.70;;;;;;;14.26;46.70;95969.72;5017064;28;20049;-78
2023/03/23 06:10:55;;;;;;;2.35;1.20;;;;;;;14.25;46.51;95968.91;5017723;28;20092;-77
2023/03/23 06:13:23;;;;;;;1.95;1.30;;;;;;;14.27;46.47;95959.00;5017949;28;20085;-78
2023/03/23 06:15:49;;;;;;;3.35;1.33;;;;;;;14.29;46.57;95964.03;5017735;28;20053;-78
2023/03/23 06:18:16;;;;;;;2.60;1.38;;;;;;;14.32;46.06;95963.56;5017220;28;20144;-77
2023/03/23 06:20:43;;;;;;;2.85;1.02;;;;;;;14.33;46.40;95960.75;5018777;28;20048;-77
2023/03/23 06:23:10;;;;;;;2.10;1.20;;;;;;;14.35;46.09;95963.94;5017369;28;20045;-77
2023/03/23 06:25:36;;;;;;;4.90;1.00;;;;;;;14.37;46.08;95971.59;5030787;28;20081;-78
2023/03/23 06:28:04;;;;;;;2.67;1.40;;;;;;;14.35;45.98;95969.19;5027168;28;20208;-77
2023/03/23 06:30:32;;;;;;;2.92;1.83;;;;;;;14.33;46.02;95968.63;5019929;28;20048;-77
2023/03/23 06:32:58;;;;;;;2.50;1.85;;;;;;;14.33;46.09;95971.25;5023024;28;20077;-77
2023/03/23 06:35:25;;;;;;;3.83;1.40;;;;;;;14.34;46.12;95988.59;5017344;28;20523;-78
2023/03/23 06:37:53;;;;;;;2.58;1.45;;;;;;;14.34;45.94;95978.09;5029865;28;20057;-76
2023/03/23 06:40:21;;;;;;;4.35;1.42;;;;;;;14.35;46.03;95973.66;5031042;28;20109;-77
2023/03/23 06:42:47;;;;;;;2.25;1.48;;;;;;;14.35;46.25;95979.69;5025668;28;20046;-76
2023/03/23 06:45:14;;;;;;;10.73;2.05;;;;;;;14.37;46.32;95988.16;5013921;28;20520;-76
2023/03/23 06:47:43;;;;;;;2.13;1.52;;;;;;;14.39;46.32;95990.56;5006702;28;20060;-79
2023/03/23 06:50:11;;;;;;;2.35;1.40;;;;;;;14.38;46.26;95984.47;5011041;28;20129;-77
2023/03/23 06:52:37;;;;;;;3.78;1.67;;;;;;;14.37;46.45;95990.78;5022352;28;20092;-78
2023/03/23 06:55:05;;;;;;;2.88;1.52;;;;;;;14.36;46.10;95991.78;5020955;28;20057;-77
2023/03/23 06:57:31;;;;;;;3.22;1.48;;;;;;;14.35;46.41;95992.81;5015972;28;20049;-76
2023/03/23 06:59:58;;;;;;;10.27;1.92;;;;;;;14.37;46.42;95993.38;5016367;28;20045;-77
2023/03/23 07:02:25;;;;;;;4.25;1.77;;;;;;;14.41;46.76;95993.75;5016550;28;20083;-77
2023/03/23 07:04:54;;;;;;;1.90;1.40;;;;;;;14.42;46.67;95993.53;5015955;28;20053;-75
2023/03/23 07:07:20;;;;;;;3.25;1.95;;;;;;;14.42;46.57;95990.91;5016547;28;20439;-76
2023/03/23 07:09:47;;;;;;;3.03;1.90;;;;;;;14.45;46.52;95988.84;5015115;28;20057;-76
2023/03/23 07:12:14;;;;;;;2.95;1.80;;;;;;;14.49;46.75;96000.53;5016313;28;20494;-76
2023/03/23 07:14:40;;;;;;;2.42;1.80;;;;;;;14.55;46.47;95994.41;5014979;28;20064;-76
2023/03/23 07:17:07;;;;;;;2.10;1.65;;;;;;;14.57;46.33;96000.25;5013698;28;20084;-75
2023/03/23 07:19:35;;;;;;;3.55;1.52;;;;;;;14.57;46.41;96002.88;5013949;28;20099;-76
2023/03/23 07:22:04;;;;;;;2.42;1.48;;;;;;;14.59;46.22;96013.97;5010871;28;20046;-76
2023/03/23 07:24:31;;;;;;;4.28;1.95;;;;;;;14.59;46.54;96001.63;5016526;28;20066;-75
2023/03/23 07:26:57;;;;;;;2.40;1.65;;;;;;;14.61;46.67;96004.84;5012736;28;20072;-75
2023/03/23 07:29:24;;;;;;;2.53;1.80;;;;;;;14.62;46.59;96006.41;5015129;28;20080;-76
2023/03/23 07:31:51;;;;;;;6.35;1.65;;;;;;;14.66;46.57;96011.25;5014625;28;20091;-76
2023/03/23 07:34:18;;;;;;;4.35;1.90;;;;;;;14.69;46.23;96010.78;5016121;28;20132;-77
2023/03/23 07:36:46;;;;;;;4.30;1.80;;;;;;;14.71;46.54;96016.63;5014131;28;20049;-76
2023/03/23 07:39:14;;;;;;;2.13;1.80;;;;;;;14.78;46.31;96019.97;5011032;28;20396;-75
2023/03/23 07:41:41;;;;;;;6.03;2.17;;;;;;;14.84;46.46;96021.69;5014903;28;20100;-75
2023/03/23 07:44:07;;;;;;;4.32;1.80;;;;;;;14.88;46.57;96019.44;5014798;28;20539;-77
2023/03/23 07:46:34;;;;;;;2.35;1.80;;;;;;;14.90;46.40;96033.16;5014571;28;20504;-77
2023/03/23 07:49:04;;;;;;;3.85;1.60;;;;;;;14.88;47.01;96019.44;5014933;28;20046;-76
2023/03/23 07:51:31;;;;;;;2.13;1.90;;;;;;;14.85;47.57;96031.19;5014684;28;20463;-76
2023/03/23 07:53:57;;;;;;;3.85;1.80;;;;;;;14.83;47.91;96034.03;5012781;28;20083;-77
2023/03/23 07:56:26;;;;;;;4.43;1.60;;;;;;;14.88;48.16;96040.44;5015634;28;20057;-77
2023/03/23 07:58:56;;;;;;;4.30;2.00;;;;;;;14.89;48.15;96039.41;5015798;28;20109;-77
2023/03/23 08:01:23;;;;;;;2.40;1.17;;;;;;;14.90;48.03;96033.16;5011173;28;20063;-76
2023/03/23 08:03:50;;;;;;;3.67;1.95;;;;;;;14.93;48.16;96043.19;5016081;28;20108;-76
2023/03/23 08:06:16;;;;;;;3.17;1.55;;;;;;;14.96;48.30;96037.50;5014374;28;20062;-77
2023/03/23 08:08:43;;;;;;;5.82;1.90;;;;;;;15.01;47.96;96043.69;5014880;28;20081;-77
2023/03/23 08:11:09;;;;;;;4.85;1.48;;;;;;;15.02;48.06;96047.09;5015871;28;20080;-75
2023/03/23 08:13:38;;;;;;;3.25;1.70;;;;;;;15.00;48.07;96044.72;5015587;28;20136;-76
2023/03/23 08:16:05;;;;;;;2.55;1.58;;;;;;;14.99;47.68;96052.81;5015250;28;20071;-76
2023/03/23 08:18:34;;;;;;;4.03;1.85;;;;;;;15.00;47.79;96041.31;5015710;28;20046;-76
2023/03/23 08:21:00;;;;;;;3.53;1.50;;;;;;;15.00;47.55;96049.19;5015092;28;20050;-76
2023/03/23 08:23:27;;;;;;;4.78;2.22;;;;;;;15.01;47.83;96050.78;5016273;28;20631;-76
2023/03/23 08:25:54;;;;;;;9.18;1.67;;;;;;;15.02;47.60;96047.09;5015556;28;20091;-75
2023/03/23 08:28:21;;;;;;;6.80;2.00;;;;;;;15.06;48.18;96052.72;5013617;28;20045;-77
2023/03/23 08:30:49;;;;;;;3.38;2.15;;;;;;;15.13;48.08;96053.44;5014872;28;20085;-76
2023/03/23 08:33:16;;;;;;;5.28;1.63;;;;;;;15.17;47.60;96049.34;5014776;28;20522;-76
2023/03/23 08:35:43;;;;;;;2.22;1.25;;;;;;;15.22;47.57;96062.63;5018801;28;20041;-76
2023/03/23 08:38:11;;;;;;;4.82;1.60;;;;;;;15.28;47.86;96060.91;5006789;28;20068;-77
2023/03/23 08:40:39;;;;;;;2.38;1.65;;;;;;;15.32;47.84;96068.09;5015461;28;20052;-77
2023/03/23 08:43:06;;;;;;;2.80;1.40;;;;;;;15.36;48.13;96064.00;5014303;28;20247;-76
2023/03/23 08:45:33;;;;;;;2.38;1.30;;;;;;;15.39;48.05;96068.00;5014895;28;20088;-76
2023/03/23 08:48:00;;;;;;;4.93;1.42;;;;;;;15.42;47.46;96083.34;5014653;28;20073;-77
2023/03/23 08:50:30;;;;;;;4.70;1.67;;;;;;;15.47;47.12;96080.03;5014238;28;20049;-77
2023/03/23 08:52:58;;;;;;;4.75;1.27;;;;;;;15.54;47.20;96091.25;5000617;28;20046;-77
2023/03/23 08:55:26;;;;;;;1.52;1.30;;;;;;;15.60;46.90;96088.53;5010289;28;20091;-75
2023/03/23 08:57:53;;;;;;;3.20;1.23;;;;;;;15.69;46.29;96091.63;5012217;28;20045;-76
2023/03/23 09:00:23;;;;;;;3.63;1.45;;;;;;;15.77;45.47;96091.31;5014414;28;20093;-76
2023/03/23 09:02:52;;;;;;;2.65;1.25;;;;;;;15.84;45.08;96085.97;5010299;28;20045;-76
2023/03/23 09:05:24;;;;;;;2.28;1.08;;;;;;;15.90;44.52;96098.22;5007856;28;20037;-76
2023/03/23 09:07:52;;;;;;;1.20;1.10;;;;;;;15.97;44.63;96096.25;5050734;28;20080;-75
2023/03/23 09:10:20;;;;;;;1.33;1.23;;;;;;;16.14;44.32;96101.66;5034690;28;20078;-77
2023/03/23 09:12:47;;;;;;;1.77;1.60;;;;;;;16.40;43.68;96089.84;5034385;28;20049;-76
2023/03/23 09:15:16;;;;;;;2.03;1.23;;;;;;;16.68;43.32;96089.13;5031903;28;20053;-77
2023/03/23 09:17:45;;;;;;;3.40;1.40;;;;;;;16.95;43.07;96091.25;5017561;28;20056;-75
2023/03/23 09:20:14;;;;;;;1.92;1.30;;;;;;;17.05;42.35;96095.91;5013723;28;20053;-76
2023/03/23 09:22:43;;;;;;;2.67;1.50;;;;;;;17.08;42.53;96103.34;5013947;28;20087;-77
2023/03/23 09:25:11;;;;;;;2.83;1.40;;;;;;;17.05;42.98;96107.25;5023029;28;20114;-76
2023/03/23 09:27:39;;;;;;;3.22;1.42;;;;;;;17.02;43.04;96107.72;5020270;28;20057;-77
2023/03/23 09:30:07;;;;;;;1.80;1.55;;;;;;;17.00;43.13;96108.97;5019792;28;20049;-77
2023/03/23 09:32:35;;;;;;;2.45;2.03;;;;;;;16.93;43.18;96116.22;4995779;28;20046;-76
2023/03/23 09:35:01;;;;;;;2.00;1.38;;;;;;;16.85;43.49;96112.91;5014050;28;20049;-77
2023/03/23 09:37:28;;;;;;;2.20;1.40;;;;;;;16.79;43.71;96119.09;5025775;28;20136;-76
2023/03/23 09:39:56;;;;;;;3.08;1.88;;;;;;;16.75;43.74;96120.59;5015401;28;20049;-77
2023/03/23 09:42:40;;;;;;;2.75;1.20;;;;;;;16.73;43.62;96130.56;5018536;28;20152;-77
2023/03/23 09:45:17;;;;;;;2.20;1.60;;;;;;;16.72;43.86;96128.94;5017623;28;20117;-76
2023/03/23 09:47:50;;;;;;;1.40;1.20;;;;;;;16.69;43.98;96134.69;5017587;28;20049;-75
2023/03/23 09:50:19;;;;;;;2.35;1.85;;;;;;;16.65;44.36;96154.59;5011455;28;20590;-77
2023/03/23 09:52:51;;;;;;;1.92;1.80;;;;;;;16.56;44.81;96148.09;5015716;28;20133;-76
2023/03/23 09:55:21;;;;;;;1.75;1.35;;;;;;;16.49;44.82;96158.75;5016762;28;20045;-76
2023/03/23 09:57:54;;;;;;;3.75;1.08;;;;;;;16.48;45.15;96159.75;5014363;28;20068;-77
2023/03/23 10:00:25;;;;;;;2.70;1.25;;;;;;;16.46;45.31;96156.56;5017109;28;20049;-76
2023/03/23 10:03:01;;;;;;;1.40;1.30;;;;;;;16.44;45.59;96163.88;5017367;28;20084;-76
2023/03/23 10:05:33;;;;;;;1.92;1.67;;;;;;;16.42;45.65;96166.75;5016174;28;20045;-76
2023/03/23 10:08:01;;;;;;;2.75;1.20;;;;;;;16.42;45.64;96177.28;5006397;28;20147;-77
2023/03/23 10:10:37;;;;;;;2.20;1.48;;;;;;;16.42;45.79;96169.41;5014239;28;20534;-76
2023/03/23 10:13:16;;;;;;;4.47;1.48;;;;;;;16.41;45.93;96169.63;5017306;28;20088;-77
2023/03/23 10:15:44;;;;;;;2.17;1.90;;;;;;;16.39;45.87;96161.94;5016240;28;20042;-77
2023/03/23 10:18:17;;;;;;;2.22;1.63;;;;;;;16.38;46.12;96160.34;5017716;28;20466;-77
2023/03/23 10:20:49;;;;;;;1.80;1.55;;;;;;;16.39;46.43;96167.19;5016752;28;20671;-77
2023/03/23 10:23:38;;;;;;;2.63;1.33;;;;;;;16.43;46.25;96162.28;5011559;28;20069;-76
2023/03/23 10:26:15;;;;;;;2.22;1.10;;;;;;;16.40;46.56;96163.56;5016635;28;20530;-76
2023/03/23 10:28:45;;;;;;;2.25;1.50;;;;;;;16.38;46.69;96160.34;5011527;28;20137;-76
2023/03/23 10:31:17;;;;;;;1.30;1.20;;;;;;;16.38;46.41;96154.28;5016525;28;20073;-77
2023/03/23 10:33:46;;;;;;;2.53;1.58;;;;;;;16.37;46.61;96160.56;5017083;28;20064;-77
2023/03/23 10:36:19;;;;;;;2.25;1.13;;;;;;;16.38;46.88;96170.88;5022958;28;20119;-76
2023/03/23 10:38:49;;;;;;;1.52;1.30;;;;;;;16.39;47.04;96167.19;5036474;28;20156;-76
2023/03/23 10:41:19;;;;;;;2.65;1.52;;;;;;;16.40;47.19;96179.34;5014733;28;20045;-77
2023/03/23 10:43:49;;;;;;;1.67;1.20;;;;;;;16.40;46.87;96168.81;5017171;28;20570;-77
2023/03/23 10:46:27;;;;;;;1.17;1.08;;;;;;;16.38;46.89;96168.25;5016231;28;20499;-76
2023/03/23 10:48:56;;;;;;;2.28;1.48;;;;;;;16.37;47.13;96171.09;5015549;28;20151;-76
2023/03/23 10:51:31;;;;;;;2.50;1.60;;;;;;;16.34;47.63;96185.53;5030844;28;20049;-76
2023/03/23 10:53:59;;;;;;;2.08;1.38;;;;;;;16.33;47.21;96180.47;5018424;28;20570;-76
2023/03/23 10:56:29;;;;;;;3.83;1.30;;;;;;;16.33;47.48;96186.53;5016084;28;20061;-76
2023/03/23 10:58:56;;;;;;;1.40;1.30;;;;;;;16.34;47.33;96188.16;5015247;28;20069;-76
2023/03/23 11:01:31;;;;;;;2.53;1.60;;;;;;;16.32;47.66;96187.59;5017715;28;20581;-77
2023/03/23 11:04:00;;;;;;;2.25;1.60;;;;;;;16.29;47.62;96177.53;5018836;28;20519;-77
2023/03/23 11:06:29;;;;;;;2.03;1.27;;;;;;;16.25;47.79;96179.78;5016169;28;20133;-77
2023/03/23 11:09:00;;;;;;;1.20;1.10;;;;;;;16.22;48.16;96184.69;5015534;28;20055;-76
2023/03/23 11:11:29;;;;;;;1.23;1.13;;;;;;;16.21;48.15;96181.28;5016452;28;20120;-76
2023/03/23 11:14:01;;;;;;;1.70;1.60;;;;;;;16.22;48.41;96193.41;5015942;28;20507;-76
2023/03/23 11:16:30;;;;;;;1.90;1.13;;;;;;;16.26;48.13;96196.38;5015767;28;20466;-77
2023/03/23 11:18:58;;;;;;;1.52;1.25;;;;;;;16.28;48.47;96191.69;5015016;28;20293;-77
2023/03/23 11:21:26;;;;;;;1.10;1.00;;;;;;;16.31;48.17;96183.34;5016035;28;20042;-77
2023/03/23 11:23:57;;;;;;;2.60;1.10;;;;;;;16.34;48.55;96190.78;5015673;28;20056;-77
2023/03/23 11:26:27;;;;;;;3.10;2.10;;;;;;;16.37;49.08;96182.41;5016085;28;20087;-77
2023/03/23 11:28:58;;;;;;;1.92;1.40;;;;;;;16.40;48.65;96195.16;5015457;28;20503;-77
2023/03/23 11:31:28;;;;;;;1.45;1.35;;;;;;;16.39;48.53;96196.16;5015798;28;20046;-77
2023/03/23 11:34:00;;;;;;;1.17;1.05;;;;;;;16.42;48.87;96182.56;5016236;28;20136;-77
2023/03/23 11:36:32;;;;;;;2.90;1.30;;;;;;;16.46;49.07;96186.34;5023835;28;20209;-77
2023/03/23 11:38:59;;;;;;;;;;;;;;;16.53;48.80;96182.75;5015349;28;20081;-77
2023/03/23 12:26:19;;;;;;;1.25;1.15;;;;;;;17.93;46.97;96154.44;6263602;23;20220;-79
2023/03/23 12:29:21;;;;;;;1.35;0.90;;;;;;;18.02;47.28;96153.00;6253480;23;20020;-78
2023/03/23 12:32:00;;;;;;;1.70;1.05;;;;;;;18.04;47.12;96148.28;6222806;23;20107;-79
2023/03/23 12:34:41;;;;;;;2.65;1.88;;;;;;;18.07;47.99;96144.38;6222877;23;20103;-78
2023/03/23 12:37:24;;;;;;;2.58;1.25;;;;;;;18.05;46.65;96147.22;6222969;23;20028;-78
2023/03/23 12:40:07;;;;;;;;;;;;;;;18.06;46.40;96133.00;6223108;23;20020;-78